sensor_id;sensor_type;location;lat;lon;timestamp;pressure;altitude;pressure_sealevel;temperature;humidity
70198;BME280;57582;-34.876;138.628;2022-11-20T00:01:36;100076;;;18.57;48.03
70198;BME280;57582;-34.876;138.628;2022-11-20T00:04:36;100074;;;18.28;47.66
70198;BME280;57582;-34.876;138.628;2022-11-20T00:07:36;100062;;;18.14;48.03
70198;BME280;57582;-34.876;138.628;2022-11-20T00:10:36;100069;;;17.75;48.56
70198;BME280;57582;-34.876;138.628;2022-11-20T00:13:36;100063;;;17.68;50.85
70198;BME280;57582;-34.876;138.628;2022-11-20T00:16:36;100061;;;17.79;49.57
70198;BME280;57582;-34.876;138.628;2022-11-20T00:19:36;100056;;;17.77;50.27
70198;BME280;57582;-34.876;138.628;2022-11-20T00:22:36;100050;;;17.80;51.85
70198;BME280;57582;-34.876;138.628;2022-11-20T00:25:36;100050;;;17.69;53.94
70198;BME280;57582;-34.876;138.628;2022-11-20T00:28:36;100057;;;17.73;54.41
70198;BME280;57582;-34.876;138.628;2022-11-20T00:31:36;100084;;;17.02;57.38
70198;BME280;57582;-34.876;138.628;2022-11-20T00:34:36;100093;;;16.78;62.29
70198;BME280;57582;-34.876;138.628;2022-11-20T00:37:37;100091;;;16.58;63.66
70198;BME280;57582;-34.876;138.628;2022-11-20T00:40:36;100096;;;16.45;64.00
70198;BME280;57582;-34.876;138.628;2022-11-20T00:43:36;100104;;;16.30;65.39
70198;BME280;57582;-34.876;138.628;2022-11-20T00:46:36;100121;;;15.96;68.23
70198;BME280;57582;-34.876;138.628;2022-11-20T00:49:37;100122;;;15.85;68.04
70198;BME280;57582;-34.876;138.628;2022-11-20T00:52:36;100118;;;15.78;69.86
70198;BME280;57582;-34.876;138.628;2022-11-20T00:55:36;100111;;;15.90;70.22
70198;BME280;57582;-34.876;138.628;2022-11-20T00:58:36;100120;;;16.19;71.49
70198;BME280;57582;-34.876;138.628;2022-11-20T01:01:37;100109;;;16.18;68.60
70198;BME280;57582;-34.876;138.628;2022-11-20T01:04:36;100112;;;16.47;67.87
70198;BME280;57582;-34.876;138.628;2022-11-20T01:07:36;100106;;;16.74;65.11
70198;BME280;57582;-34.876;138.628;2022-11-20T01:10:36;100089;;;17.05;65.62
70198;BME280;57582;-34.876;138.628;2022-11-20T01:13:37;100093;;;17.34;60.29
70198;BME280;57582;-34.876;138.628;2022-11-20T01:16:37;100103;;;17.60;57.65
70198;BME280;57582;-34.876;138.628;2022-11-20T01:19:36;100084;;;17.50;56.47
70198;BME280;57582;-34.876;138.628;2022-11-20T01:22:36;100083;;;17.77;57.17
70198;BME280;57582;-34.876;138.628;2022-11-20T01:25:36;100076;;;18.03;57.04
70198;BME280;57582;-34.876;138.628;2022-11-20T01:28:36;100081;;;18.42;57.82
70198;BME280;57582;-34.876;138.628;2022-11-20T01:31:36;100083;;;18.43;56.21
70198;BME280;57582;-34.876;138.628;2022-11-20T01:34:36;100082;;;18.63;55.97
70198;BME280;57582;-34.876;138.628;2022-11-20T01:37:37;100078;;;18.42;55.58
70198;BME280;57582;-34.876;138.628;2022-11-20T01:40:36;100075;;;18.68;55.41
70198;BME280;57582;-34.876;138.628;2022-11-20T01:43:36;100068;;;18.78;54.83
70198;BME280;57582;-34.876;138.628;2022-11-20T01:46:36;100063;;;18.86;54.76
70198;BME280;57582;-34.876;138.628;2022-11-20T01:49:37;100055;;;18.80;54.00
70198;BME280;57582;-34.876;138.628;2022-11-20T01:52:36;100054;;;18.95;55.22
70198;BME280;57582;-34.876;138.628;2022-11-20T01:55:36;100064;;;19.23;53.75
70198;BME280;57582;-34.876;138.628;2022-11-20T01:58:37;100044;;;19.27;53.25
70198;BME280;57582;-34.876;138.628;2022-11-20T02:01:37;100048;;;19.48;54.52
70198;BME280;57582;-34.876;138.628;2022-11-20T02:04:36;100047;;;19.61;54.30
70198;BME280;57582;-34.876;138.628;2022-11-20T02:07:36;100035;;;19.69;53.49
70198;BME280;57582;-34.876;138.628;2022-11-20T02:10:36;100024;;;19.77;52.59
70198;BME280;57582;-34.876;138.628;2022-11-20T02:13:36;100042;;;19.57;53.03
70198;BME280;57582;-34.876;138.628;2022-11-20T02:16:38;100063;;;18.39;58.90
70198;BME280;57582;-34.876;138.628;2022-11-20T02:19:36;100063;;;17.68;62.98
70198;BME280;57582;-34.876;138.628;2022-11-20T02:22:38;100073;;;17.37;66.49
70198;BME280;57582;-34.876;138.628;2022-11-20T02:25:36;100066;;;17.21;66.18
70198;BME280;57582;-34.876;138.628;2022-11-20T02:28:36;100058;;;17.26;64.79
70198;BME280;57582;-34.876;138.628;2022-11-20T02:31:37;100070;;;17.43;65.11
70198;BME280;57582;-34.876;138.628;2022-11-20T02:34:36;100058;;;17.62;64.88
70198;BME280;57582;-34.876;138.628;2022-11-20T02:37:37;100057;;;17.78;64.01
70198;BME280;57582;-34.876;138.628;2022-11-20T02:40:36;100058;;;18.28;64.82
70198;BME280;57582;-34.876;138.628;2022-11-20T02:43:36;100046;;;18.61;61.91
70198;BME280;57582;-34.876;138.628;2022-11-20T02:46:36;100034;;;18.57;56.02
70198;BME280;57582;-34.876;138.628;2022-11-20T02:49:36;100030;;;18.71;54.27
70198;BME280;57582;-34.876;138.628;2022-11-20T02:52:36;100024;;;18.84;52.48
70198;BME280;57582;-34.876;138.628;2022-11-20T02:55:36;100007;;;18.96;53.36
70198;BME280;57582;-34.876;138.628;2022-11-20T02:58:36;100000;;;19.16;51.82
70198;BME280;57582;-34.876;138.628;2022-11-20T03:01:36;99999;;;19.21;50.06
70198;BME280;57582;-34.876;138.628;2022-11-20T03:04:36;100000;;;19.27;51.50
70198;BME280;57582;-34.876;138.628;2022-11-20T03:07:36;99998;;;19.27;50.56
70198;BME280;57582;-34.876;138.628;2022-11-20T03:10:36;99996;;;18.83;49.74
70198;BME280;57582;-34.876;138.628;2022-11-20T03:13:36;99993;;;18.45;52.03
70198;BME280;57582;-34.876;138.628;2022-11-20T03:16:36;100005;;;18.08;55.33
70198;BME280;57582;-34.876;138.628;2022-11-20T03:19:36;100039;;;17.41;57.23
70198;BME280;57582;-34.876;138.628;2022-11-20T03:22:36;100088;;;16.65;66.16
70198;BME280;57582;-34.876;138.628;2022-11-20T03:25:37;100074;;;16.40;70.53
70198;BME280;57582;-34.876;138.628;2022-11-20T03:28:36;100073;;;16.33;70.22
70198;BME280;57582;-34.876;138.628;2022-11-20T03:31:37;100067;;;16.29;70.85
70198;BME280;57582;-34.876;138.628;2022-11-20T03:34:36;100055;;;16.55;72.89
70198;BME280;57582;-34.876;138.628;2022-11-20T03:37:36;100058;;;16.67;67.14
70198;BME280;57582;-34.876;138.628;2022-11-20T03:40:36;100033;;;16.91;63.58
70198;BME280;57582;-34.876;138.628;2022-11-20T03:43:36;100029;;;17.25;64.57
70198;BME280;57582;-34.876;138.628;2022-11-20T03:46:36;100030;;;17.81;60.01
70198;BME280;57582;-34.876;138.628;2022-11-20T03:49:36;100042;;;18.15;54.27
70198;BME280;57582;-34.876;138.628;2022-11-20T03:52:36;100040;;;18.18;54.48
70198;BME280;57582;-34.876;138.628;2022-11-20T03:55:36;100044;;;18.46;54.69
70198;BME280;57582;-34.876;138.628;2022-11-20T03:58:36;100045;;;18.67;53.43
70198;BME280;57582;-34.876;138.628;2022-11-20T04:01:36;100035;;;18.48;54.44
70198;BME280;57582;-34.876;138.628;2022-11-20T04:04:36;100023;;;18.47;54.24
70198;BME280;57582;-34.876;138.628;2022-11-20T04:07:36;100032;;;18.73;54.95
70198;BME280;57582;-34.876;138.628;2022-11-20T04:10:36;100017;;;19.02;54.53
70198;BME280;57582;-34.876;138.628;2022-11-20T04:13:37;100015;;;19.18;54.65
70198;BME280;57582;-34.876;138.628;2022-11-20T04:16:36;100013;;;19.31;50.92
70198;BME280;57582;-34.876;138.628;2022-11-20T04:19:36;100020;;;19.36;51.48
70198;BME280;57582;-34.876;138.628;2022-11-20T04:22:36;100006;;;19.39;52.22
70198;BME280;57582;-34.876;138.628;2022-11-20T04:25:37;99996;;;19.40;50.75
70198;BME280;57582;-34.876;138.628;2022-11-20T04:28:36;100024;;;19.27;51.13
70198;BME280;57582;-34.876;138.628;2022-11-20T04:31:36;100050;;;18.68;53.48
70198;BME280;57582;-34.876;138.628;2022-11-20T04:34:36;100049;;;18.48;54.43
70198;BME280;57582;-34.876;138.628;2022-11-20T04:37:37;100051;;;18.57;55.10
70198;BME280;57582;-34.876;138.628;2022-11-20T04:40:36;100051;;;18.62;54.00
70198;BME280;57582;-34.876;138.628;2022-11-20T04:43:36;100046;;;18.72;53.82
70198;BME280;57582;-34.876;138.628;2022-11-20T04:46:38;100048;;;18.73;54.40
70198;BME280;57582;-34.876;138.628;2022-11-20T04:49:37;100050;;;18.57;54.32
70198;BME280;57582;-34.876;138.628;2022-11-20T04:52:36;100048;;;18.70;54.18
70198;BME280;57582;-34.876;138.628;2022-11-20T04:55:36;100040;;;18.85;54.21
70198;BME280;57582;-34.876;138.628;2022-11-20T04:58:37;100034;;;19.00;53.99
70198;BME280;57582;-34.876;138.628;2022-11-20T05:01:37;100036;;;18.94;53.05
70198;BME280;57582;-34.876;138.628;2022-11-20T05:04:36;100043;;;18.97;56.04
70198;BME280;57582;-34.876;138.628;2022-11-20T05:07:36;100043;;;18.90;56.39
70198;BME280;57582;-34.876;138.628;2022-11-20T05:10:36;100045;;;18.83;54.95
70198;BME280;57582;-34.876;138.628;2022-11-20T05:13:37;100051;;;18.67;56.10
70198;BME280;57582;-34.876;138.628;2022-11-20T05:16:36;99914;;;17.79;55.56
70198;BME280;57582;-34.876;138.628;2022-11-20T05:19:36;100040;;;18.67;54.81
70198;BME280;57582;-34.876;138.628;2022-11-20T05:22:36;100038;;;18.75;54.63
70198;BME280;57582;-34.876;138.628;2022-11-20T05:25:37;100054;;;18.56;53.14
70198;BME280;57582;-34.876;138.628;2022-11-20T05:28:36;100029;;;18.50;53.96
70198;BME280;57582;-34.876;138.628;2022-11-20T05:31:36;100024;;;18.60;54.05
70198;BME280;57582;-34.876;138.628;2022-11-20T05:34:36;100023;;;18.49;52.28
70198;BME280;57582;-34.876;138.628;2022-11-20T05:37:38;99992;;;18.30;53.27
70198;BME280;57582;-34.876;138.628;2022-11-20T05:40:36;100025;;;18.66;52.55
70198;BME280;57582;-34.876;138.628;2022-11-20T05:43:37;99997;;;18.66;51.87
70198;BME280;57582;-34.876;138.628;2022-11-20T05:46:36;100018;;;18.54;53.13
70198;BME280;57582;-34.876;138.628;2022-11-20T05:49:37;100026;;;18.22;54.84
70198;BME280;57582;-34.876;138.628;2022-11-20T05:52:36;100020;;;18.19;54.87
70198;BME280;57582;-34.876;138.628;2022-11-20T05:55:36;100008;;;18.01;55.64
70198;BME280;57582;-34.876;138.628;2022-11-20T05:58:36;100005;;;17.76;56.39
70198;BME280;57582;-34.876;138.628;2022-11-20T06:01:37;100016;;;17.58;57.70
70198;BME280;57582;-34.876;138.628;2022-11-20T06:04:36;100019;;;17.58;58.19
70198;BME280;57582;-34.876;138.628;2022-11-20T06:07:36;100025;;;17.42;58.68
70198;BME280;57582;-34.876;138.628;2022-11-20T06:10:36;100039;;;17.34;58.55
70198;BME280;57582;-34.876;138.628;2022-11-20T06:13:37;100037;;;17.16;58.83
70198;BME280;57582;-34.876;138.628;2022-11-20T06:16:36;100044;;;16.81;61.29
70198;BME280;57582;-34.876;138.628;2022-11-20T06:19:36;100081;;;16.44;63.45
70198;BME280;57582;-34.876;138.628;2022-11-20T06:22:36;100085;;;16.30;65.65
70198;BME280;57582;-34.876;138.628;2022-11-20T06:25:38;100093;;;16.30;66.90
70198;BME280;57582;-34.876;138.628;2022-11-20T06:28:36;100088;;;16.19;67.89
70198;BME280;57582;-34.876;138.628;2022-11-20T06:31:36;100082;;;15.81;67.83
70198;BME280;57582;-34.876;138.628;2022-11-20T06:34:36;100092;;;15.49;68.41
70198;BME280;57582;-34.876;138.628;2022-11-20T06:37:37;100099;;;15.57;67.98
70198;BME280;57582;-34.876;138.628;2022-11-20T06:40:39;100096;;;15.66;67.16
70198;BME280;57582;-34.876;138.628;2022-11-20T06:43:36;100093;;;15.76;66.75
70198;BME280;57582;-34.876;138.628;2022-11-20T06:46:36;100097;;;15.78;66.17
70198;BME280;57582;-34.876;138.628;2022-11-20T06:49:37;100100;;;15.47;67.80
70198;BME280;57582;-34.876;138.628;2022-11-20T06:52:36;100090;;;15.43;66.78
70198;BME280;57582;-34.876;138.628;2022-11-20T06:55:36;100088;;;15.37;65.94
70198;BME280;57582;-34.876;138.628;2022-11-20T06:58:36;100094;;;15.46;66.46
70198;BME280;57582;-34.876;138.628;2022-11-20T07:01:37;100090;;;15.56;66.36
70198;BME280;57582;-34.876;138.628;2022-11-20T07:04:36;100101;;;15.55;66.12
70198;BME280;57582;-34.876;138.628;2022-11-20T07:07:36;100109;;;15.53;66.88
70198;BME280;57582;-34.876;138.628;2022-11-20T07:10:36;100111;;;15.47;68.22
70198;BME280;57582;-34.876;138.628;2022-11-20T07:13:37;100108;;;15.65;68.27
70198;BME280;57582;-34.876;138.628;2022-11-20T07:16:36;100095;;;15.74;68.48
70198;BME280;57582;-34.876;138.628;2022-11-20T07:19:36;100107;;;15.94;67.64
70198;BME280;57582;-34.876;138.628;2022-11-20T07:22:36;100106;;;16.10;67.44
70198;BME280;57582;-34.876;138.628;2022-11-20T07:25:37;100071;;;16.10;68.84
70198;BME280;57582;-34.876;138.628;2022-11-20T07:28:36;100094;;;16.26;67.56
70198;BME280;57582;-34.876;138.628;2022-11-20T07:31:36;100090;;;16.43;66.42
70198;BME280;57582;-34.876;138.628;2022-11-20T07:34:36;100099;;;16.55;64.72
70198;BME280;57582;-34.876;138.628;2022-11-20T07:37:37;100125;;;16.50;64.22
70198;BME280;57582;-34.876;138.628;2022-11-20T07:40:36;100101;;;15.67;63.96
70198;BME280;57582;-34.876;138.628;2022-11-20T07:43:36;100119;;;15.51;64.92
70198;BME280;57582;-34.876;138.628;2022-11-20T07:46:36;100126;;;15.38;65.10
70198;BME280;57582;-34.876;138.628;2022-11-20T07:49:37;100131;;;15.45;64.86
70198;BME280;57582;-34.876;138.628;2022-11-20T07:52:36;100125;;;15.45;64.90
70198;BME280;57582;-34.876;138.628;2022-11-20T07:55:36;100128;;;15.56;65.53
70198;BME280;57582;-34.876;138.628;2022-11-20T07:58:36;100113;;;15.35;63.48
70198;BME280;57582;-34.876;138.628;2022-11-20T08:01:38;100130;;;15.43;63.32
70198;BME280;57582;-34.876;138.628;2022-11-20T08:04:36;100144;;;15.51;61.21
70198;BME280;57582;-34.876;138.628;2022-11-20T08:07:38;100139;;;15.46;60.66
70198;BME280;57582;-34.876;138.628;2022-11-20T08:10:36;100149;;;15.37;61.68
70198;BME280;57582;-34.876;138.628;2022-11-20T08:13:37;100141;;;15.53;61.56
70198;BME280;57582;-34.876;138.628;2022-11-20T08:16:36;100146;;;15.80;62.42
70198;BME280;57582;-34.876;138.628;2022-11-20T08:19:36;100126;;;15.86;63.42
70198;BME280;57582;-34.876;138.628;2022-11-20T08:22:36;100147;;;16.12;60.79
70198;BME280;57582;-34.876;138.628;2022-11-20T08:25:37;100144;;;15.87;59.10
70198;BME280;57582;-34.876;138.628;2022-11-20T08:28:36;100154;;;15.62;60.47
70198;BME280;57582;-34.876;138.628;2022-11-20T08:31:36;100175;;;15.47;61.70
70198;BME280;57582;-34.876;138.628;2022-11-20T08:34:36;100178;;;15.35;62.38
70198;BME280;57582;-34.876;138.628;2022-11-20T08:37:37;100193;;;15.12;61.75
70198;BME280;57582;-34.876;138.628;2022-11-20T08:40:36;100194;;;15.07;62.40
70198;BME280;57582;-34.876;138.628;2022-11-20T08:43:36;100195;;;15.03;62.27
70198;BME280;57582;-34.876;138.628;2022-11-20T08:46:37;100200;;;14.70;62.03
70198;BME280;57582;-34.876;138.628;2022-11-20T08:49:37;100206;;;14.74;60.95
70198;BME280;57582;-34.876;138.628;2022-11-20T08:52:36;100208;;;14.75;61.16
70198;BME280;57582;-34.876;138.628;2022-11-20T08:55:36;100198;;;14.78;60.17
70198;BME280;57582;-34.876;138.628;2022-11-20T08:58:37;100213;;;14.82;60.27
70198;BME280;57582;-34.876;138.628;2022-11-20T09:01:37;100211;;;14.87;59.66
70198;BME280;57582;-34.876;138.628;2022-11-20T09:04:36;100213;;;14.98;58.51
70198;BME280;57582;-34.876;138.628;2022-11-20T09:07:36;100214;;;15.10;57.89
70198;BME280;57582;-34.876;138.628;2022-11-20T09:10:36;100217;;;14.97;58.12
70198;BME280;57582;-34.876;138.628;2022-11-20T09:13:37;100234;;;14.94;58.19
70198;BME280;57582;-34.876;138.628;2022-11-20T09:16:36;100226;;;15.00;58.35
70198;BME280;57582;-34.876;138.628;2022-11-20T09:19:36;100222;;;15.06;57.19
70198;BME280;57582;-34.876;138.628;2022-11-20T09:22:39;100224;;;15.14;57.30
70198;BME280;57582;-34.876;138.628;2022-11-20T09:25:37;100232;;;15.14;58.19
70198;BME280;57582;-34.876;138.628;2022-11-20T09:28:36;100227;;;15.16;56.29
70198;BME280;57582;-34.876;138.628;2022-11-20T09:31:36;100220;;;15.22;55.98
70198;BME280;57582;-34.876;138.628;2022-11-20T09:34:36;100231;;;15.22;56.45
70198;BME280;57582;-34.876;138.628;2022-11-20T09:37:38;100225;;;15.31;56.43
70198;BME280;57582;-34.876;138.628;2022-11-20T09:40:38;100217;;;15.29;55.90
70198;BME280;57582;-34.876;138.628;2022-11-20T09:49:47;100206;;;15.02;56.50
70198;BME280;57582;-34.876;138.628;2022-11-20T09:55:37;100275;;;14.80;62.58
70198;BME280;57582;-34.876;138.628;2022-11-20T09:58:45;100298;;;14.46;66.26
70198;BME280;57582;-34.876;138.628;2022-11-20T10:01:37;100318;;;13.88;67.51
70198;BME280;57582;-34.876;138.628;2022-11-20T10:04:36;100322;;;13.61;68.00
70198;BME280;57582;-34.876;138.628;2022-11-20T10:10:53;100332;;;13.13;68.11
70198;BME280;57582;-34.876;138.628;2022-11-20T10:25:39;100346;;;13.82;68.00
70198;BME280;57582;-34.876;138.628;2022-11-20T10:28:46;100356;;;13.91;67.44
70198;BME280;57582;-34.876;138.628;2022-11-20T10:31:40;100347;;;13.92;67.85
70198;BME280;57582;-34.876;138.628;2022-11-20T10:37:37;100358;;;13.89;66.46
70198;BME280;57582;-34.876;138.628;2022-11-20T10:40:38;100356;;;13.91;65.62
70198;BME280;57582;-34.876;138.628;2022-11-20T10:43:37;100361;;;13.86;65.23
70198;BME280;57582;-34.876;138.628;2022-11-20T10:46:39;100358;;;13.96;65.45
70198;BME280;57582;-34.876;138.628;2022-11-20T10:49:37;100364;;;14.09;64.37
70198;BME280;57582;-34.876;138.628;2022-11-20T11:01:41;100367;;;13.93;63.83
70198;BME280;57582;-34.876;138.628;2022-11-20T11:04:39;100381;;;14.05;63.68
70198;BME280;57582;-34.876;138.628;2022-11-20T11:07:38;100381;;;13.95;64.17
70198;BME280;57582;-34.876;138.628;2022-11-20T11:13:37;100381;;;14.00;64.50
70198;BME280;57582;-34.876;138.628;2022-11-20T11:16:44;100381;;;14.06;64.29
70198;BME280;57582;-34.876;138.628;2022-11-20T11:19:37;100376;;;14.05;64.67
70198;BME280;57582;-34.876;138.628;2022-11-20T11:22:43;100377;;;14.20;64.07
70198;BME280;57582;-34.876;138.628;2022-11-20T11:25:37;100372;;;14.35;63.79
70198;BME280;57582;-34.876;138.628;2022-11-20T11:28:37;100364;;;14.42;63.64
70198;BME280;57582;-34.876;138.628;2022-11-20T11:31:37;100370;;;14.39;62.68
70198;BME280;57582;-34.876;138.628;2022-11-20T11:34:37;100378;;;14.24;63.69
70198;BME280;57582;-34.876;138.628;2022-11-20T11:37:38;100380;;;13.96;63.15
70198;BME280;57582;-34.876;138.628;2022-11-20T11:40:37;100380;;;13.94;64.32
70198;BME280;57582;-34.876;138.628;2022-11-20T11:43:37;100385;;;13.89;63.64
70198;BME280;57582;-34.876;138.628;2022-11-20T11:46:37;100391;;;13.64;64.60
70198;BME280;57582;-34.876;138.628;2022-11-20T11:49:37;100381;;;13.61;63.92
70198;BME280;57582;-34.876;138.628;2022-11-20T11:55:42;100389;;;13.70;63.59
70198;BME280;57582;-34.876;138.628;2022-11-20T12:01:47;100379;;;13.89;62.15
70198;BME280;57582;-34.876;138.628;2022-11-20T12:04:46;100392;;;13.80;61.67
70198;BME280;57582;-34.876;138.628;2022-11-20T12:13:47;100387;;;14.00;61.61
70198;BME280;57582;-34.876;138.628;2022-11-20T12:16:37;100394;;;14.07;61.52
70198;BME280;57582;-34.876;138.628;2022-11-20T12:19:37;100399;;;14.14;59.83
70198;BME280;57582;-34.876;138.628;2022-11-20T12:25:37;100432;;;13.85;59.34
70198;BME280;57582;-34.876;138.628;2022-11-20T12:29:11;100426;;;13.62;58.42
70198;BME280;57582;-34.876;138.628;2022-11-20T12:31:43;100433;;;13.37;61.12
70198;BME280;57582;-34.876;138.628;2022-11-20T12:43:41;100402;;;13.15;65.95
70198;BME280;57582;-34.876;138.628;2022-11-20T12:49:40;100410;;;13.53;60.66
70198;BME280;57582;-34.876;138.628;2022-11-20T12:52:46;100410;;;13.70;59.39
70198;BME280;57582;-34.876;138.628;2022-11-20T13:01:40;100408;;;13.80;57.12
70198;BME280;57582;-34.876;138.628;2022-11-20T13:07:37;100419;;;13.90;58.31
70198;BME280;57582;-34.876;138.628;2022-11-20T13:10:43;100424;;;13.96;60.22
70198;BME280;57582;-34.876;138.628;2022-11-20T13:16:39;100422;;;14.00;60.53
70198;BME280;57582;-34.876;138.628;2022-11-20T13:19:37;100408;;;13.93;61.26
70198;BME280;57582;-34.876;138.628;2022-11-20T13:22:53;100406;;;13.92;60.27
70198;BME280;57582;-34.876;138.628;2022-11-20T13:25:38;100403;;;14.05;59.86
70198;BME280;57582;-34.876;138.628;2022-11-20T13:28:37;100397;;;14.08;57.50
70198;BME280;57582;-34.876;138.628;2022-11-20T13:31:39;100406;;;14.00;57.69
70198;BME280;57582;-34.876;138.628;2022-11-20T13:34:37;100401;;;13.96;58.10
70198;BME280;57582;-34.876;138.628;2022-11-20T13:37:38;100405;;;13.98;58.12
70198;BME280;57582;-34.876;138.628;2022-11-20T13:40:38;100403;;;14.02;58.54
70198;BME280;57582;-34.876;138.628;2022-11-20T13:43:38;100402;;;13.83;57.66
70198;BME280;57582;-34.876;138.628;2022-11-20T13:46:39;100404;;;13.84;57.64
70198;BME280;57582;-34.876;138.628;2022-11-20T13:49:38;100409;;;13.84;57.58
70198;BME280;57582;-34.876;138.628;2022-11-20T13:52:39;100394;;;13.83;57.66
70198;BME280;57582;-34.876;138.628;2022-11-20T14:01:38;100390;;;13.82;58.45
70198;BME280;57582;-34.876;138.628;2022-11-20T14:04:38;100400;;;13.80;58.13
70198;BME280;57582;-34.876;138.628;2022-11-20T14:07:39;100401;;;13.86;57.61
70198;BME280;57582;-34.876;138.628;2022-11-20T14:10:37;100406;;;13.81;57.01
70198;BME280;57582;-34.876;138.628;2022-11-20T14:13:37;100451;;;13.18;64.22
70198;BME280;57582;-34.876;138.628;2022-11-20T14:16:37;100452;;;12.91;65.74
70198;BME280;57582;-34.876;138.628;2022-11-20T14:19:37;100441;;;12.41;64.58
70198;BME280;57582;-34.876;138.628;2022-11-20T14:22:37;100429;;;12.14;65.66
70198;BME280;57582;-34.876;138.628;2022-11-20T14:25:41;100432;;;12.29;66.21
70198;BME280;57582;-34.876;138.628;2022-11-20T14:28:37;100426;;;12.37;65.12
70198;BME280;57582;-34.876;138.628;2022-11-20T14:31:37;100447;;;12.40;66.53
70198;BME280;57582;-34.876;138.628;2022-11-20T14:34:38;100439;;;12.33;67.57
70198;BME280;57582;-34.876;138.628;2022-11-20T14:37:38;100425;;;12.31;66.56
70198;BME280;57582;-34.876;138.628;2022-11-20T14:40:37;100419;;;12.39;65.99
70198;BME280;57582;-34.876;138.628;2022-11-20T14:43:37;100412;;;12.40;64.84
70198;BME280;57582;-34.876;138.628;2022-11-20T14:46:37;100408;;;12.39;65.77
70198;BME280;57582;-34.876;138.628;2022-11-20T14:49:38;100414;;;12.60;65.73
70198;BME280;57582;-34.876;138.628;2022-11-20T14:52:37;100410;;;12.64;66.03
70198;BME280;57582;-34.876;138.628;2022-11-20T14:55:38;100420;;;12.70;65.61
70198;BME280;57582;-34.876;138.628;2022-11-20T14:58:37;100423;;;12.69;66.30
70198;BME280;57582;-34.876;138.628;2022-11-20T15:01:38;100423;;;12.85;65.90
70198;BME280;57582;-34.876;138.628;2022-11-20T15:07:39;100428;;;12.81;64.08
70198;BME280;57582;-34.876;138.628;2022-11-20T15:10:37;100431;;;12.64;64.22
70198;BME280;57582;-34.876;138.628;2022-11-20T15:13:38;100437;;;12.48;65.46
70198;BME280;57582;-34.876;138.628;2022-11-20T15:16:37;100447;;;12.30;66.67
70198;BME280;57582;-34.876;138.628;2022-11-20T15:19:37;100458;;;12.12;69.04
70198;BME280;57582;-34.876;138.628;2022-11-20T15:22:37;100379;;;11.74;70.08
70198;BME280;57582;-34.876;138.628;2022-11-20T15:25:38;100424;;;11.85;66.28
70198;BME280;57582;-34.876;138.628;2022-11-20T15:28:41;100419;;;11.95;65.19
70198;BME280;57582;-34.876;138.628;2022-11-20T15:31:37;100424;;;11.95;65.21
70198;BME280;57582;-34.876;138.628;2022-11-20T15:34:37;100417;;;11.98;65.64
70198;BME280;57582;-34.876;138.628;2022-11-20T15:37:38;100421;;;12.04;66.03
70198;BME280;57582;-34.876;138.628;2022-11-20T15:40:37;100408;;;12.19;65.91
70198;BME280;57582;-34.876;138.628;2022-11-20T15:43:37;100405;;;12.19;66.08
70198;BME280;57582;-34.876;138.628;2022-11-20T15:46:38;100395;;;12.23;66.36
70198;BME280;57582;-34.876;138.628;2022-11-20T15:49:38;100394;;;12.12;66.63
70198;BME280;57582;-34.876;138.628;2022-11-20T15:52:37;100398;;;11.97;66.30
70198;BME280;57582;-34.876;138.628;2022-11-20T15:55:37;100405;;;11.94;65.64
70198;BME280;57582;-34.876;138.628;2022-11-20T15:58:37;100409;;;11.92;65.92
70198;BME280;57582;-34.876;138.628;2022-11-20T16:01:38;100425;;;12.10;66.45
70198;BME280;57582;-34.876;138.628;2022-11-20T16:04:37;100425;;;12.07;64.75
70198;BME280;57582;-34.876;138.628;2022-11-20T16:07:37;100441;;;11.92;66.11
70198;BME280;57582;-34.876;138.628;2022-11-20T16:10:37;100425;;;11.81;66.06
70198;BME280;57582;-34.876;138.628;2022-11-20T16:13:38;100424;;;11.76;66.34
70198;BME280;57582;-34.876;138.628;2022-11-20T16:16:37;100421;;;11.86;66.99
70198;BME280;57582;-34.876;138.628;2022-11-20T16:19:37;100421;;;11.96;66.80
70198;BME280;57582;-34.876;138.628;2022-11-20T16:22:37;100423;;;12.00;66.70
70198;BME280;57582;-34.876;138.628;2022-11-20T16:25:38;100414;;;12.11;67.03
70198;BME280;57582;-34.876;138.628;2022-11-20T16:28:37;100419;;;12.27;66.63
70198;BME280;57582;-34.876;138.628;2022-11-20T16:31:37;100424;;;12.33;66.63
70198;BME280;57582;-34.876;138.628;2022-11-20T16:34:37;100436;;;12.12;66.61
70198;BME280;57582;-34.876;138.628;2022-11-20T16:37:38;100423;;;12.07;66.46
70198;BME280;57582;-34.876;138.628;2022-11-20T16:40:37;100420;;;11.97;66.90
70198;BME280;57582;-34.876;138.628;2022-11-20T16:43:37;100411;;;12.01;66.20
70198;BME280;57582;-34.876;138.628;2022-11-20T16:46:37;100399;;;11.96;66.00
70198;BME280;57582;-34.876;138.628;2022-11-20T16:49:37;100404;;;11.96;65.35
70198;BME280;57582;-34.876;138.628;2022-11-20T16:52:37;100436;;;11.91;64.86
70198;BME280;57582;-34.876;138.628;2022-11-20T16:55:37;100449;;;11.61;63.17
70198;BME280;57582;-34.876;138.628;2022-11-20T16:58:37;100449;;;11.52;64.20
70198;BME280;57582;-34.876;138.628;2022-11-20T17:01:37;100419;;;11.17;62.72
70198;BME280;57582;-34.876;138.628;2022-11-20T17:04:37;100411;;;11.29;61.39
70198;BME280;57582;-34.876;138.628;2022-11-20T17:07:37;100421;;;11.38;60.89